Time;durP1;ratioP1;P1;durP2;ratioP2;P2;SDS_P1;SDS_P2;PMS_P1;PMS_P2;Temp;Humidity;BMP_temperature;BMP_pressure;BME280_temperature;BME280_humidity;BME280_pressure;Samples;Min_cycle;Max_cycle;Signal;HPM_P1;HPM_P2
2023/10/30 00:02:25;;;;;;;1.20;0.60;;;;;;;15.97;100.00;97022.31;1222896;75;3049634;-75
2023/10/30 00:04:57;;;;;;;1.30;0.50;;;;;;;16.18;99.19;97018.94;1223817;75;2946206;-76
2023/10/30 00:07:30;;;;;;;0.85;0.40;;;;;;;16.22;98.94;97030.41;1224297;75;2919231;-74
2023/10/30 00:10:03;;;;;;;0.55;0.40;;;;;;;16.11;100.00;97033.38;1225784;75;2922757;-75
2023/10/30 00:12:38;;;;;;;2.10;0.40;;;;;;;16.07;100.00;97047.50;1225683;75;2916851;-79
2023/10/30 00:15:11;;;;;;;0.30;0.30;;;;;;;15.94;100.00;97048.19;1223222;75;2997351;-75
2023/10/30 00:17:44;;;;;;;0.55;0.30;;;;;;;15.98;100.00;97048.63;1224969;75;2922958;-78
2023/10/30 00:20:17;;;;;;;1.60;0.80;;;;;;;15.98;100.00;97036.88;1222122;75;3068113;-73
2023/10/30 00:22:50;;;;;;;0.80;0.60;;;;;;;15.74;100.00;97043.28;1218686;75;3101385;-76
2023/10/30 00:25:23;;;;;;;2.00;0.55;;;;;;;15.69;100.00;97041.31;1204892;75;4261822;-74
2023/10/30 00:28:00;;;;;;;1.10;0.50;;;;;;;15.94;100.00;97036.41;1224402;75;2920416;-77
2023/10/30 00:30:33;;;;;;;0.70;0.40;;;;;;;15.74;100.00;97057.81;1224381;75;2911473;-75
2023/10/30 00:33:05;;;;;;;0.60;0.40;;;;;;;15.67;100.00;97041.84;1222080;75;3094663;-78
2023/10/30 00:35:38;;;;;;;0.75;0.50;;;;;;;15.28;100.00;97034.88;1224591;75;2918385;-73
2023/10/30 00:38:11;;;;;;;1.00;0.60;;;;;;;15.28;100.00;97037.63;1223815;75;2997482;-77
2023/10/30 00:40:43;;;;;;;1.15;0.85;;;;;;;15.52;100.00;97027.78;1225244;75;2921728;-75
2023/10/30 00:43:19;;;;;;;1.10;0.80;;;;;;;15.29;100.00;97030.84;1225194;75;2917423;-76
2023/10/30 00:45:51;;;;;;;1.25;0.60;;;;;;;15.24;100.00;97031.66;1225067;75;2918602;-77
2023/10/30 00:48:25;;;;;;;1.00;0.50;;;;;;;14.55;100.00;97040.53;1226169;75;2916013;-76
2023/10/30 00:50:58;;;;;;;1.35;0.50;;;;;;;14.87;100.00;97029.66;1222813;75;3051364;-75
2023/10/30 00:53:30;;;;;;;0.60;0.50;;;;;;;14.75;100.00;97022.81;1222977;75;3058155;-74
2023/10/30 00:56:03;;;;;;;0.70;0.50;;;;;;;14.72;100.00;97030.09;1225413;75;2924389;-76
2023/10/30 00:58:39;;;;;;;0.50;0.40;;;;;;;14.77;100.00;97026.53;1224774;75;2931399;-76
2023/10/30 01:01:13;;;;;;;1.90;0.50;;;;;;;13.98;100.00;97032.09;1224477;75;2950839;-74
2023/10/30 01:03:46;;;;;;;1.45;0.70;;;;;;;14.35;100.00;97033.47;1226219;75;2915857;-75
2023/10/30 01:06:18;;;;;;;0.90;0.50;;;;;;;14.21;100.00;97027.84;1220851;75;3066465;-74
2023/10/30 01:08:51;;;;;;;1.00;0.50;;;;;;;14.32;100.00;97018.00;1225672;75;2914064;-76
2023/10/30 01:11:23;;;;;;;1.15;0.50;;;;;;;14.31;100.00;97033.00;1225659;75;2957863;-73
2023/10/30 01:13:59;;;;;;;0.60;0.30;;;;;;;14.37;100.00;97019.94;1223000;75;3060975;-75
2023/10/30 01:16:31;;;;;;;0.70;0.35;;;;;;;14.30;100.00;97023.28;1225403;75;2914364;-75
2023/10/30 01:19:04;;;;;;;3.25;0.60;;;;;;;14.01;100.00;97028.28;1225166;75;2914489;-74
2023/10/30 01:21:36;;;;;;;0.90;0.50;;;;;;;14.15;100.00;97023.69;1222649;75;3007113;-77
2023/10/30 01:24:11;;;;;;;1.25;0.70;;;;;;;13.72;100.00;97014.03;1225110;75;2919847;-78
2023/10/30 01:26:43;;;;;;;1.90;0.80;;;;;;;13.84;100.00;97011.94;1225662;75;2918115;-76
2023/10/30 01:29:19;;;;;;;0.95;0.70;;;;;;;14.03;100.00;97015.50;1225198;75;2920548;-77
2023/10/30 01:31:51;;;;;;;0.65;0.40;;;;;;;13.89;100.00;97026.91;1222396;75;3092086;-76
2023/10/30 01:34:24;;;;;;;0.95;0.60;;;;;;;13.75;100.00;97028.75;1224144;75;2911452;-77
2023/10/30 01:36:57;;;;;;;0.70;0.40;;;;;;;14.02;100.00;97027.03;1224286;75;2917498;-76
2023/10/30 01:39:29;;;;;;;0.70;0.50;;;;;;;13.83;100.00;97027.69;1224915;75;2918204;-77
2023/10/30 01:42:02;;;;;;;0.60;0.30;;;;;;;13.77;100.00;97034.50;1225315;75;2919635;-75
2023/10/30 01:44:37;;;;;;;1.55;0.75;;;;;;;13.53;100.00;97033.16;1222857;75;3002876;-77
2023/10/30 01:47:10;;;;;;;1.05;0.50;;;;;;;13.70;100.00;97029.56;1222030;75;3052368;-76
2023/10/30 01:49:43;;;;;;;0.50;0.50;;;;;;;13.52;100.00;97030.94;1223659;75;2913313;-78
2023/10/30 01:52:16;;;;;;;0.65;0.45;;;;;;;13.55;100.00;97036.16;1225684;75;2912953;-73
2023/10/30 01:54:51;;;;;;;0.80;0.40;;;;;;;13.35;100.00;97036.56;1224963;75;2915461;-75
2023/10/30 01:57:26;;;;;;;0.80;0.50;;;;;;;13.46;100.00;97032.97;1224593;75;2920440;-80
2023/10/30 02:00:02;;;;;;;2.10;1.00;;;;;;;13.20;100.00;97034.88;1224108;75;2927836;-77
2023/10/30 02:02:36;;;;;;;3.35;1.70;;;;;;;13.04;100.00;97030.22;1224289;75;2925011;-78
2023/10/30 02:05:10;;;;;;;5.05;2.85;;;;;;;12.91;100.00;97041.00;1224568;75;2924213;-75
2023/10/30 02:07:43;;;;;;;8.10;4.30;;;;;;;13.00;100.00;97032.47;1224949;75;2921497;-77
2023/10/30 02:10:16;;;;;;;7.00;4.10;;;;;;;13.14;100.00;97031.41;1225435;75;2913540;-78
2023/10/30 02:12:52;;;;;;;7.25;5.30;;;;;;;13.10;100.00;97027.41;1224266;75;2918059;-79
2023/10/30 02:15:27;;;;;;;6.40;4.05;;;;;;;13.36;100.00;97022.28;1223798;75;2921685;-75
2023/10/30 02:18:00;;;;;;;5.10;3.65;;;;;;;13.21;100.00;97017.09;1224201;75;2942282;-77
2023/10/30 02:20:33;;;;;;;2.85;2.15;;;;;;;13.15;100.00;97021.13;1224304;75;2919699;-75
2023/10/30 02:23:05;;;;;;;5.90;2.90;;;;;;;12.87;100.00;97011.06;1225535;75;2918983;-76
2023/10/30 02:25:41;;;;;;;3.85;2.50;;;;;;;13.10;100.00;97003.44;1225044;75;2921105;-79
2023/10/30 02:28:14;;;;;;;3.45;2.20;;;;;;;13.34;100.00;97002.06;1223621;67;2924331;-77
2023/10/30 02:30:46;;;;;;;2.80;1.75;;;;;;;13.30;100.00;96999.59;1224346;75;2945438;-77
2023/10/30 02:33:19;;;;;;;1.30;1.10;;;;;;;13.24;100.00;97007.09;1224047;75;2925232;-72
2023/10/30 02:35:51;;;;;;;3.25;1.50;;;;;;;13.02;100.00;97010.72;1225384;75;2926270;-72
2023/10/30 02:38:24;;;;;;;1.75;1.00;;;;;;;12.96;100.00;97021.75;1224707;75;2917519;-77
2023/10/30 02:40:59;;;;;;;2.00;1.15;;;;;;;12.93;100.00;97020.00;1224377;75;2941640;-78
2023/10/30 02:43:32;;;;;;;1.20;0.80;;;;;;;13.19;100.00;97011.38;1223390;75;2986881;-77
2023/10/30 02:46:07;;;;;;;1.10;0.70;;;;;;;13.24;100.00;97009.84;1225582;75;2915328;-78
2023/10/30 02:48:40;;;;;;;0.90;0.70;;;;;;;13.11;100.00;97013.19;1224716;75;2925425;-76
2023/10/30 02:51:12;;;;;;;1.10;0.60;;;;;;;12.90;100.00;97029.25;1222935;75;2969453;-76
2023/10/30 02:53:45;;;;;;;1.25;0.70;;;;;;;12.79;100.00;97021.84;1224714;75;2922456;-72
2023/10/30 02:56:20;;;;;;;1.65;0.70;;;;;;;12.39;100.00;97027.94;1223185;75;2973761;-74
2023/10/30 02:58:53;;;;;;;0.60;0.55;;;;;;;12.77;100.00;97016.09;1224978;75;2920819;-74
2023/10/30 03:01:26;;;;;;;0.95;0.80;;;;;;;12.50;100.00;97016.94;1224703;75;2924088;-75
2023/10/30 03:03:58;;;;;;;2.25;1.30;;;;;;;11.86;100.00;97009.31;1224414;75;2920517;-76
2023/10/30 03:06:31;;;;;;;2.55;1.40;;;;;;;12.18;100.00;97019.28;1224848;75;2920539;-77
2023/10/30 03:09:04;;;;;;;4.95;1.40;;;;;;;12.08;100.00;97027.75;1224791;75;2969491;-76
2023/10/30 03:11:39;;;;;;;2.90;0.90;;;;;;;12.28;100.00;97023.97;1217517;75;3063329;-76
2023/10/30 03:14:12;;;;;;;3.35;1.00;;;;;;;12.22;100.00;97014.25;1225203;75;2924934;-75
2023/10/30 03:16:44;;;;;;;1.85;1.00;;;;;;;12.27;100.00;97032.72;1223077;75;3022636;-76
2023/10/30 03:19:17;;;;;;;2.15;1.30;;;;;;;12.36;100.00;97037.94;1221598;75;3000153;-75
2023/10/30 03:21:49;;;;;;;1.55;0.95;;;;;;;12.58;100.00;97037.16;1225511;75;2922593;-74
2023/10/30 03:24:22;;;;;;;2.45;1.45;;;;;;;12.36;100.00;97016.75;1224894;75;2925630;-74
2023/10/30 03:26:57;;;;;;;2.40;1.20;;;;;;;12.14;100.00;97006.53;1220180;75;3091419;-75
2023/10/30 03:29:27;;;;;;;1.60;1.20;;;;;;;12.25;100.00;97016.75;1225058;75;2922949;-76
2023/10/30 03:32:00;;;;;;;2.20;1.15;;;;;;;12.15;100.00;97024.50;1225223;75;2890688;-76
2023/10/30 03:34:33;;;;;;;1.50;1.15;;;;;;;12.29;100.00;97022.75;1225001;75;2922435;-76
2023/10/30 03:37:06;;;;;;;1.80;1.20;;;;;;;12.49;100.00;97040.16;1224723;75;2923878;-76
2023/10/30 03:39:38;;;;;;;2.40;1.30;;;;;;;12.35;100.00;97041.94;1224463;75;2934558;-74
2023/10/30 03:42:14;;;;;;;2.15;1.10;;;;;;;12.52;100.00;97039.88;1225082;75;2929431;-74
2023/10/30 03:44:46;;;;;;;1.90;1.10;;;;;;;12.47;100.00;97050.91;1224579;75;2927401;-77
2023/10/30 03:47:19;;;;;;;1.80;1.00;;;;;;;12.23;100.00;97052.19;1222896;75;2937531;-76
2023/10/30 03:49:52;;;;;;;1.25;1.15;;;;;;;12.25;100.00;97043.47;1224450;75;2924784;-78
2023/10/30 03:52:24;;;;;;;2.50;1.10;;;;;;;12.09;100.00;97058.69;1222715;75;2987667;-77
2023/10/30 03:55:03;;;;;;;2.60;1.20;;;;;;;11.96;100.00;97058.47;1220420;75;3096098;-76
2023/10/30 03:57:40;;;;;;;;;;;;;;;12.03;100.00;97052.47;1225451;75;2921918;-76
2023/10/30 04:00:15;;;;;;;2.05;0.90;;;;;;;12.13;100.00;97059.19;1225485;75;2925845;-74
2023/10/30 04:02:47;;;;;;;1.55;0.95;;;;;;;11.97;100.00;97057.19;1222423;75;2927693;-74
2023/10/30 04:05:20;;;;;;;2.50;1.20;;;;;;;12.45;100.00;97056.13;1224654;75;2924877;-75
2023/10/30 04:07:53;;;;;;;2.15;1.05;;;;;;;12.44;100.00;97047.16;1222757;75;2960039;-72
2023/10/30 04:10:25;;;;;;;1.65;0.95;;;;;;;12.46;100.00;97052.91;1208784;75;4058643;-75
2023/10/30 04:13:00;;;;;;;3.25;1.30;;;;;;;11.99;100.00;97060.19;1224202;75;2933080;-78
2023/10/30 04:15:33;;;;;;;2.80;1.10;;;;;;;12.11;100.00;97059.69;1224727;75;2918940;-73
2023/10/30 04:18:06;;;;;;;1.75;0.95;;;;;;;12.39;100.00;97056.16;1223393;75;3056778;-74
2023/10/30 04:20:39;;;;;;;2.95;1.65;;;;;;;11.84;100.00;97072.13;1224759;75;2923111;-76
2023/10/30 04:23:11;;;;;;;2.45;1.10;;;;;;;12.04;100.00;97073.91;1221613;75;3076093;-76
2023/10/30 04:25:44;;;;;;;1.75;1.10;;;;;;;12.44;100.00;97074.59;1224556;75;2925438;-75
2023/10/30 04:28:19;;;;;;;2.05;1.10;;;;;;;12.44;100.00;97068.38;1220905;75;3071872;-75
2023/10/30 04:30:52;;;;;;;2.15;1.10;;;;;;;12.28;100.00;97067.88;1224106;75;2931802;-76
2023/10/30 04:33:24;;;;;;;1.55;1.10;;;;;;;12.49;100.00;97082.09;1223064;75;2921391;-74
2023/10/30 04:35:57;;;;;;;1.00;0.80;;;;;;;12.63;100.00;97079.53;1212836;75;3792154;-74
2023/10/30 04:38:30;;;;;;;0.70;0.70;;;;;;;12.54;100.00;97070.34;1224171;75;2923823;-77
2023/10/30 04:41:07;;;;;;;1.75;1.00;;;;;;;12.36;100.00;97068.13;1223944;75;2930561;-73
2023/10/30 04:43:42;;;;;;;1.45;0.80;;;;;;;12.45;100.00;97069.88;1224254;75;2922143;-74
2023/10/30 04:46:17;;;;;;;1.25;0.80;;;;;;;12.53;100.00;97068.09;1224905;75;2920609;-75
2023/10/30 04:48:49;;;;;;;1.10;0.80;;;;;;;12.59;100.00;97063.34;1225413;75;2923977;-77
2023/10/30 04:51:22;;;;;;;0.95;0.80;;;;;;;12.48;100.00;97052.38;1224012;75;2926846;-77
2023/10/30 04:53:54;;;;;;;0.95;0.70;;;;;;;12.55;100.00;97058.13;1220368;75;3084059;-75
2023/10/30 04:56:27;;;;;;;4.10;1.60;;;;;;;11.87;100.00;97057.44;1224853;75;2923419;-77
2023/10/30 04:59:02;;;;;;;2.50;1.90;;;;;;;12.06;100.00;97054.22;1224038;75;2924431;-77
2023/10/30 05:01:35;;;;;;;2.45;1.40;;;;;;;12.11;100.00;97056.19;1222578;75;2932930;-77
2023/10/30 05:04:09;;;;;;;2.90;1.30;;;;;;;12.42;100.00;97046.91;1207180;75;4032167;-75
2023/10/30 05:06:42;;;;;;;3.60;1.20;;;;;;;12.50;100.00;97049.88;1216260;75;3095655;-77
2023/10/30 05:09:11;;;;;;;2.35;1.20;;;;;;;12.02;100.00;97062.69;1220801;75;3084508;-74
2023/10/30 05:11:44;;;;;;;4.95;2.80;;;;;;;11.88;100.00;97064.44;1224858;75;2909239;-75
2023/10/30 05:14:19;;;;;;;5.20;3.05;;;;;;;12.31;100.00;97066.91;1221789;75;3084719;-75
2023/10/30 05:16:52;;;;;;;3.75;2.70;;;;;;;12.35;100.00;97063.91;1221146;75;3072277;-74
2023/10/30 05:19:25;;;;;;;5.40;3.40;;;;;;;12.11;100.00;97059.69;1224882;75;2922378;-75
2023/10/30 05:21:58;;;;;;;5.75;4.20;;;;;;;12.32;100.00;97064.91;1221225;75;3090151;-72
2023/10/30 05:24:30;;;;;;;6.60;3.85;;;;;;;12.40;100.00;97067.88;1223738;75;2923614;-76
2023/10/30 05:27:03;;;;;;;8.65;5.20;;;;;;;12.54;100.00;97062.09;1223815;75;2920959;-75
2023/10/30 05:29:39;;;;;;;5.85;3.95;;;;;;;12.41;100.00;97061.13;1223577;75;2946691;-77
2023/10/30 05:32:11;;;;;;;5.30;3.85;;;;;;;12.13;100.00;97059.94;1225252;75;2922682;-73
2023/10/30 05:34:45;;;;;;;4.30;3.05;;;;;;;12.21;100.00;97054.69;1170787;75;5823772;-77
2023/10/30 05:37:17;;;;;;;4.90;2.65;;;;;;;12.18;100.00;97052.19;1225226;75;2924951;-76
2023/10/30 05:39:52;;;;;;;6.00;3.55;;;;;;;11.96;100.00;97067.44;1220861;75;3087283;-76
2023/10/30 05:42:24;;;;;;;13.15;8.50;;;;;;;12.04;100.00;97065.66;1221572;75;3042688;-78
2023/10/30 05:45:00;;;;;;;6.65;5.10;;;;;;;12.32;100.00;97067.66;1217242;75;3115438;-76
2023/10/30 05:47:33;;;;;;;5.40;3.55;;;;;;;12.39;100.00;97069.88;1223694;75;2934851;-72
2023/10/30 05:50:06;;;;;;;3.95;2.80;;;;;;;12.36;100.00;97079.88;1224308;75;2924665;-71
2023/10/30 05:52:39;;;;;;;2.40;1.90;;;;;;;12.47;100.00;97081.84;1222576;75;2932820;-75
2023/10/30 05:55:13;;;;;;;3.20;1.75;;;;;;;12.52;100.00;97083.81;1224250;75;2920299;-73
2023/10/30 05:57:45;;;;;;;6.30;3.25;;;;;;;11.87;100.00;97084.13;1222787;75;2979542;-75
2023/10/30 06:00:22;;;;;;;5.10;3.15;;;;;;;12.02;100.00;97094.84;1223832;75;2937394;-75
2023/10/30 06:02:56;;;;;;;4.40;2.70;;;;;;;12.18;100.00;97091.38;1223998;75;2943492;-73
2023/10/30 06:05:28;;;;;;;5.05;2.65;;;;;;;12.18;100.00;97096.84;1219739;75;3111643;-77
2023/10/30 06:08:01;;;;;;;3.40;2.00;;;;;;;12.44;100.00;97104.06;1225073;75;2925828;-77
2023/10/30 06:10:33;;;;;;;2.05;1.55;;;;;;;12.53;100.00;97106.53;1221735;75;2996585;-75
2023/10/30 06:13:07;;;;;;;6.00;3.25;;;;;;;11.83;100.00;97116.50;1222479;75;2930363;-76
2023/10/30 06:15:43;;;;;;;5.85;2.90;;;;;;;12.17;100.00;97105.56;1224160;75;2933500;-74
2023/10/30 06:18:15;;;;;;;3.55;2.25;;;;;;;12.32;100.00;97106.06;1221229;75;3080623;-75
2023/10/30 06:20:49;;;;;;;2.70;2.00;;;;;;;12.33;100.00;97105.56;1224568;75;2923818;-76
2023/10/30 06:23:21;;;;;;;3.45;2.10;;;;;;;12.42;100.00;97123.78;1224814;75;2925719;-77
2023/10/30 06:25:54;;;;;;;8.50;3.35;;;;;;;12.02;100.00;97125.03;1220424;75;3095043;-77
2023/10/30 06:28:27;;;;;;;5.20;3.15;;;;;;;12.14;100.00;97116.28;1224001;75;2940694;-74
2023/10/30 06:31:03;;;;;;;4.60;2.90;;;;;;;12.47;100.00;97111.28;1225382;75;2924387;-73
2023/10/30 06:33:36;;;;;;;3.45;2.30;;;;;;;12.60;100.00;97108.75;1224264;75;2924285;-73
2023/10/30 06:36:13;;;;;;;3.35;2.25;;;;;;;12.52;100.00;97105.03;1224678;75;2924740;-72
2023/10/30 06:38:45;;;;;;;3.25;1.85;;;;;;;12.56;100.00;97102.78;1224531;75;2925309;-73
2023/10/30 06:41:18;;;;;;;2.45;1.80;;;;;;;12.52;100.00;97113.28;1220808;75;3102160;-74
2023/10/30 06:43:51;;;;;;;3.85;2.30;;;;;;;12.57;100.00;97107.75;1225077;75;2923020;-74
2023/10/30 06:46:27;;;;;;;3.90;2.35;;;;;;;12.60;100.00;97119.00;1224506;75;2927889;-74
2023/10/30 06:48:59;;;;;;;2.70;1.80;;;;;;;12.66;100.00;97111.50;1224941;75;2922649;-73
2023/10/30 06:51:32;;;;;;;4.40;2.55;;;;;;;12.58;100.00;97122.25;1225004;75;2934649;-74
2023/10/30 06:54:05;;;;;;;4.50;2.90;;;;;;;12.35;100.00;97135.25;1223833;75;2925184;-73
2023/10/30 06:56:38;;;;;;;8.65;5.95;;;;;;;11.98;100.00;97122.56;1224016;75;2933883;-72
2023/10/30 06:59:13;;;;;;;7.65;5.45;;;;;;;12.36;100.00;97128.50;1225014;75;2924174;-74
2023/10/30 07:01:49;;;;;;;6.95;4.50;;;;;;;12.21;100.00;97131.50;1224457;75;2922879;-71
2023/10/30 07:04:24;;;;;;;8.50;3.85;;;;;;;12.23;100.00;97137.25;1217879;75;2920407;-76
2023/10/30 07:06:57;;;;;;;4.55;2.80;;;;;;;12.31;100.00;97137.50;1221727;75;2931002;-73
2023/10/30 07:09:30;;;;;;;4.65;3.40;;;;;;;12.28;100.00;97138.50;1225396;75;2928372;-73
2023/10/30 07:12:03;;;;;;;5.50;2.45;;;;;;;12.49;100.00;97130.75;1223686;75;2929337;-73
2023/10/30 07:14:36;;;;;;;2.55;1.85;;;;;;;12.72;100.00;97126.72;1225075;75;2921613;-73
2023/10/30 07:17:11;;;;;;;2.70;1.80;;;;;;;12.80;100.00;97124.22;1224944;75;2932633;-73
2023/10/30 07:19:44;;;;;;;2.95;2.20;;;;;;;12.46;100.00;97127.03;1224866;75;2931712;-75
2023/10/30 07:22:16;;;;;;;3.85;2.60;;;;;;;12.30;100.00;97122.28;1224290;75;2921425;-73
2023/10/30 07:24:49;;;;;;;3.55;2.50;;;;;;;12.52;100.00;97130.50;1223888;75;2925568;-73
2023/10/30 07:27:22;;;;;;;3.00;2.10;;;;;;;12.75;100.00;97125.72;1225258;75;2876846;-73
2023/10/30 07:29:54;;;;;;;3.00;2.20;;;;;;;12.74;100.00;97118.72;1225064;75;2935688;-75
2023/10/30 07:32:30;;;;;;;2.10;1.80;;;;;;;12.85;100.00;97122.69;1224918;75;2926343;-76
2023/10/30 07:35:02;;;;;;;2.50;1.70;;;;;;;12.57;100.00;97113.25;1225183;75;2926152;-75
2023/10/30 07:37:36;;;;;;;3.65;2.15;;;;;;;12.56;100.00;97113.78;1225012;75;2920476;-73
2023/10/30 07:40:11;;;;;;;5.15;3.25;;;;;;;12.52;100.00;97119.50;1224143;75;2924409;-73
2023/10/30 07:42:43;;;;;;;4.15;2.50;;;;;;;12.47;100.00;97128.50;1224330;75;2925145;-70
2023/10/30 07:45:16;;;;;;;3.45;2.45;;;;;;;12.85;100.00;97131.69;1224619;75;2920721;-72
2023/10/30 07:47:52;;;;;;;10.85;3.30;;;;;;;12.56;100.00;97128.25;1224320;75;2924071;-74
2023/10/30 07:50:25;;;;;;;5.85;3.35;;;;;;;12.34;100.00;97131.78;1223194;75;2924700;-75
2023/10/30 07:52:57;;;;;;;14.50;4.25;;;;;;;12.19;100.00;97127.78;1222830;75;2926317;-73
2023/10/30 07:55:30;;;;;;;10.05;3.80;;;;;;;12.46;100.00;97129.75;1224618;75;2929975;-73
2023/10/30 07:58:02;;;;;;;6.50;3.25;;;;;;;12.49;100.00;97134.25;1223183;75;2949003;-77
2023/10/30 08:00:35;;;;;;;5.90;3.05;;;;;;;12.79;100.00;97131.72;1224815;75;2927683;-76
2023/10/30 08:03:10;;;;;;;8.50;3.70;;;;;;;12.59;100.00;97137.47;1223139;75;2923042;-72
2023/10/30 08:05:45;;;;;;;8.75;3.45;;;;;;;12.60;100.00;97147.19;1224144;75;2921023;-74
2023/10/30 08:08:18;;;;;;;9.65;3.90;;;;;;;12.69;100.00;97132.47;1223949;75;2921216;-73
2023/10/30 08:10:51;;;;;;;4.05;2.90;;;;;;;12.85;100.00;97148.16;1224137;75;2922713;-72
2023/10/30 08:13:24;;;;;;;7.20;3.35;;;;;;;12.65;100.00;97157.44;1223026;75;2926113;-75
2023/10/30 08:15:57;;;;;;;5.85;3.40;;;;;;;12.93;100.00;97160.13;1225099;75;2926194;-74
2023/10/30 08:18:33;;;;;;;6.85;3.55;;;;;;;13.12;100.00;97159.56;1218786;75;3148429;-72
2023/10/30 08:21:07;;;;;;;5.85;3.00;;;;;;;13.30;100.00;97155.53;1224035;75;2924867;-74
2023/10/30 08:23:40;;;;;;;3.65;2.50;;;;;;;13.34;100.00;97167.75;1223025;75;2923692;-74
2023/10/30 08:26:12;;;;;;;4.65;2.70;;;;;;;13.16;100.00;97166.31;1210341;75;3976112;-76
2023/10/30 08:28:45;;;;;;;6.15;3.15;;;;;;;12.90;100.00;97157.63;1111792;75;11782714;-71
2023/10/30 08:31:19;;;;;;;7.60;2.85;;;;;;;13.12;100.00;97170.56;1221141;75;3022688;-74
2023/10/30 08:33:57;;;;;;;5.00;2.90;;;;;;;13.41;100.00;97174.72;1216883;75;3048475;-74
2023/10/30 08:36:29;;;;;;;5.70;3.15;;;;;;;13.39;100.00;97183.47;1224415;75;2939980;-70
2023/10/30 08:39:03;;;;;;;4.30;2.80;;;;;;;13.63;100.00;97182.88;1224855;75;2922497;-72
2023/10/30 08:41:36;;;;;;;4.45;3.15;;;;;;;13.81;100.00;97180.78;1223159;75;2925529;-77
2023/10/30 08:44:09;;;;;;;4.20;2.80;;;;;;;14.13;100.00;97177.59;1222342;75;2931331;-74
2023/10/30 08:46:42;;;;;;;2.55;1.85;;;;;;;14.31;100.00;97181.69;1225178;75;2927420;-72
2023/10/30 08:49:17;;;;;;;2.65;1.85;;;;;;;14.46;100.00;97169.06;1224850;75;2926528;-74
2023/10/30 08:51:50;;;;;;;2.90;1.60;;;;;;;14.53;100.00;97170.50;1222631;75;2926588;-74
2023/10/30 08:54:23;;;;;;;1.65;1.30;;;;;;;14.72;100.00;97178.13;1223217;75;2922823;-72
2023/10/30 08:56:55;;;;;;;1.80;1.20;;;;;;;14.81;100.00;97173.00;1224108;75;2920288;-74
2023/10/30 08:59:28;;;;;;;1.85;1.10;;;;;;;14.93;100.00;97178.41;1223190;75;2930267;-75
2023/10/30 09:02:01;;;;;;;2.25;1.30;;;;;;;14.95;100.00;97175.91;1223918;75;2919566;-77
2023/10/30 09:04:36;;;;;;;4.90;2.85;;;;;;;14.79;100.00;97166.53;1222626;75;2924733;-72
2023/10/30 09:07:09;;;;;;;4.35;2.70;;;;;;;14.99;100.00;97170.84;1221751;75;2928128;-75
2023/10/30 09:09:41;;;;;;;7.85;3.90;;;;;;;14.72;100.00;97172.59;1221624;75;2920669;-74
2023/10/30 09:12:14;;;;;;;16.05;10.05;;;;;;;14.97;100.00;97154.81;1223863;75;2921258;-74
2023/10/30 09:14:46;;;;;;;16.25;9.40;;;;;;;15.34;100.00;97164.41;1221996;75;2925660;-73
2023/10/30 09:17:19;;;;;;;13.50;7.90;;;;;;;15.28;100.00;97147.22;1223332;75;2924583;-70
2023/10/30 09:19:54;;;;;;;13.10;7.55;;;;;;;15.52;100.00;97149.16;1224329;75;2921943;-74
2023/10/30 09:22:27;;;;;;;9.65;6.15;;;;;;;15.63;100.00;97154.50;1223031;75;2932926;-74
2023/10/30 09:25:00;;;;;;;10.00;5.65;;;;;;;15.65;100.00;97140.19;1221679;75;2992386;-73
2023/10/30 09:27:32;;;;;;;10.20;5.50;;;;;;;15.43;100.00;97153.03;1224142;75;2924430;-74
2023/10/30 09:30:05;;;;;;;8.75;4.40;;;;;;;15.65;100.00;97146.47;1223838;75;2933007;-72
2023/10/30 09:32:38;;;;;;;7.95;3.80;;;;;;;15.58;100.00;97155.34;1223889;75;2919099;-71
2023/10/30 09:35:14;;;;;;;8.25;3.65;;;;;;;15.47;100.00;97156.25;1224208;75;2924791;-76
2023/10/30 09:37:46;;;;;;;6.70;3.80;;;;;;;15.75;100.00;97155.13;1224114;75;2922045;-72
2023/10/30 09:40:22;;;;;;;5.85;3.35;;;;;;;15.83;100.00;97156.03;1222986;75;2919524;-77
2023/10/30 09:42:55;;;;;;;6.05;3.40;;;;;;;15.92;100.00;97163.19;1224444;75;2922069;-73
2023/10/30 09:45:29;;;;;;;6.70;4.05;;;;;;;16.07;100.00;97154.44;1223906;75;2921878;-71
2023/10/30 09:48:02;;;;;;;5.85;2.95;;;;;;;16.46;100.00;97151.06;1221343;75;3066732;-76
2023/10/30 09:50:41;;;;;;;4.35;2.45;;;;;;;16.49;100.00;97136.16;1223355;75;2920009;-73
2023/10/30 09:53:15;;;;;;;11.00;3.25;;;;;;;16.54;100.00;97140.13;1223851;75;2916056;-74
2023/10/30 09:55:48;;;;;;;6.35;3.00;;;;;;;16.91;100.00;97150.28;1223719;75;2937873;-76
2023/10/30 09:58:21;;;;;;;4.50;3.05;;;;;;;16.55;100.00;97144.38;1220987;75;3095464;-74
2023/10/30 10:00:54;;;;;;;7.35;3.65;;;;;;;16.49;100.00;97146.47;1225071;75;2920433;-73
2023/10/30 10:03:27;;;;;;;9.20;3.60;;;;;;;16.60;100.00;97132.47;1222701;75;2922831;-75
2023/10/30 10:06:03;;;;;;;4.35;3.15;;;;;;;17.42;100.00;97125.13;1225298;75;2927535;-73
2023/10/30 10:08:36;;;;;;;4.45;2.65;;;;;;;17.80;100.00;97116.53;1223765;75;2923358;-72
2023/10/30 10:11:09;;;;;;;3.75;2.50;;;;;;;18.02;100.00;97125.63;1224241;75;2915456;-75
2023/10/30 10:13:48;;;;;;;5.90;2.90;;;;;;;17.52;100.00;97119.91;1224172;75;2926546;-72
2023/10/30 10:16:20;;;;;;;5.10;2.90;;;;;;;17.64;100.00;97125.94;1223457;75;2931022;-74
2023/10/30 10:18:53;;;;;;;6.30;3.30;;;;;;;17.64;100.00;97125.94;1223267;75;2924133;-74
2023/10/30 10:21:28;;;;;;;13.25;3.70;;;;;;;18.19;100.00;97130.75;1225112;75;2916755;-75
2023/10/30 10:24:01;;;;;;;8.10;2.95;;;;;;;18.67;100.00;97117.47;1224053;75;2922047;-73
2023/10/30 10:26:35;;;;;;;5.60;2.65;;;;;;;19.76;95.73;97111.91;1223715;75;2922718;-74
2023/10/30 10:29:08;;;;;;;6.50;2.70;;;;;;;20.11;91.05;97112.34;1224013;75;2928163;-74
2023/10/30 10:31:44;;;;;;;3.75;1.95;;;;;;;20.13;88.51;97102.16;1224618;75;2918565;-72
2023/10/30 10:34:16;;;;;;;3.00;1.95;;;;;;;20.72;83.57;97109.56;1223346;75;2919725;-74
2023/10/30 10:36:55;;;;;;;3.45;1.80;;;;;;;21.10;82.00;97102.44;1224474;75;2918268;-74
2023/10/30 10:39:27;;;;;;;;;;;;;;;20.90;82.00;97093.78;1225496;75;2920557;-73
2023/10/30 10:42:01;;;;;;;4.25;2.40;;;;;;;20.63;81.95;97096.22;1224118;75;2932264;-74
2023/10/30 10:44:34;;;;;;;6.15;2.15;;;;;;;21.46;75.85;97077.09;1223082;75;2924359;-73
2023/10/30 10:47:07;;;;;;;5.05;1.95;;;;;;;21.80;73.43;97084.88;1222865;75;2923415;-73
2023/10/30 10:49:40;;;;;;;4.10;2.60;;;;;;;22.16;71.17;97078.13;1223947;75;2917363;-74
2023/10/30 10:52:18;;;;;;;3.15;2.05;;;;;;;22.80;70.58;97075.72;1224029;75;2919253;-76
2023/10/30 10:54:56;;;;;;;4.10;1.80;;;;;;;21.17;73.82;97069.00;1223329;75;2927064;-72
2023/10/30 10:57:31;;;;;;;4.10;2.00;;;;;;;22.03;74.08;97078.38;1224442;75;2928305;-74
2023/10/30 11:00:07;;;;;;;2.50;1.35;;;;;;;22.29;69.82;97074.31;1223588;75;2917383;-73
2023/10/30 11:02:44;;;;;;;2.75;1.50;;;;;;;21.65;70.83;97069.00;1224195;75;2917531;-76
2023/10/30 11:05:17;;;;;;;3.00;1.40;;;;;;;22.32;69.36;97071.16;1224735;75;2922404;-72
2023/10/30 11:08:00;;;;;;;1.90;1.00;;;;;;;21.69;71.07;97074.16;1222657;75;2946060;-76
2023/10/30 11:10:38;;;;;;;3.10;1.15;;;;;;;22.05;70.48;97070.94;1224523;75;2922881;-74
2023/10/30 11:13:19;;;;;;;3.90;1.50;;;;;;;21.06;74.50;97053.44;1224284;75;2924116;-74
2023/10/30 11:16:00;;;;;;;2.40;1.25;;;;;;;21.18;74.93;97055.84;1224104;75;2919617;-75
2023/10/30 11:18:35;;;;;;;1.55;1.00;;;;;;;21.28;74.21;97062.28;1224268;75;2917425;-73
2023/10/30 11:21:16;;;;;;;1.75;0.95;;;;;;;22.30;72.62;97045.16;1223538;75;2917911;-71
2023/10/30 11:23:57;;;;;;;0.85;0.65;;;;;;;22.91;68.93;97052.88;1224357;75;2921581;-78
2023/10/30 11:26:43;;;;;;;2.85;1.20;;;;;;;22.57;69.35;97055.69;1225199;75;2922946;-74
2023/10/30 11:29:19;;;;;;;3.00;1.10;;;;;;;21.97;71.04;97047.97;1221105;75;3088908;-73
2023/10/30 11:32:05;;;;;;;2.40;1.20;;;;;;;21.68;71.89;97042.78;1223692;75;2919071;-73
2023/10/30 11:34:43;;;;;;;3.50;1.40;;;;;;;21.73;72.62;97043.13;1220603;75;2939255;-73
2023/10/30 11:37:18;;;;;;;1.65;0.95;;;;;;;22.30;71.05;97042.34;1223631;75;2918967;-74
2023/10/30 11:39:57;;;;;;;1.50;0.90;;;;;;;22.25;69.83;97035.69;1223997;75;2918854;-73